sensor_id;sensor_type;location;lat;lon;timestamp;temperature;humidity
2967;DHT22;1493;51.496;7.210;2022-12-29T00:00:59;10.30;99.90
2967;DHT22;1493;51.496;7.210;2022-12-29T00:03:26;10.40;99.90
2967;DHT22;1493;51.496;7.210;2022-12-29T00:05:56;10.40;99.90
2967;DHT22;1493;51.496;7.210;2022-12-29T00:08:25;10.50;99.90
2967;DHT22;1493;51.496;7.210;2022-12-29T00:11:05;10.50;99.90
2967;DHT22;1493;51.496;7.210;2022-12-29T00:13:32;10.50;99.90
2967;DHT22;1493;51.496;7.210;2022-12-29T00:16:16;10.50;99.90
2967;DHT22;1493;51.496;7.210;2022-12-29T00:18:43;10.40;99.90
2967;DHT22;1493;51.496;7.210;2022-12-29T00:21:12;10.40;99.90
2967;DHT22;1493;51.496;7.210;2022-12-29T00:23:59;10.40;99.90
2967;DHT22;1493;51.496;7.210;2022-12-29T00:26:42;10.40;99.90
2967;DHT22;1493;51.496;7.210;2022-12-29T00:29:27;10.40;99.90
2967;DHT22;1493;51.496;7.210;2022-12-29T00:32:11;10.40;99.90
2967;DHT22;1493;51.496;7.210;2022-12-29T00:34:55;10.30;99.90
2967;DHT22;1493;51.496;7.210;2022-12-29T00:37:38;10.30;99.90
2967;DHT22;1493;51.496;7.210;2022-12-29T00:40:24;10.30;99.90
2967;DHT22;1493;51.496;7.210;2022-12-29T00:43:09;10.20;99.90
2967;DHT22;1493;51.496;7.210;2022-12-29T00:45:53;10.20;99.90
2967;DHT22;1493;51.496;7.210;2022-12-29T00:48:23;10.20;99.90
2967;DHT22;1493;51.496;7.210;2022-12-29T00:51:03;10.20;99.90
2967;DHT22;1493;51.496;7.210;2022-12-29T00:53:30;10.30;99.90
2967;DHT22;1493;51.496;7.210;2022-12-29T00:55:58;10.30;99.90
2967;DHT22;1493;51.496;7.210;2022-12-29T00:58:27;10.30;99.90
2967;DHT22;1493;51.496;7.210;2022-12-29T01:01:01;10.30;99.90
2967;DHT22;1493;51.496;7.210;2022-12-29T01:03:28;10.40;99.90
2967;DHT22;1493;51.496;7.210;2022-12-29T01:05:55;10.40;99.90
2967;DHT22;1493;51.496;7.210;2022-12-29T01:08:22;10.40;99.90
2967;DHT22;1493;51.496;7.210;2022-12-29T01:10:59;10.40;99.90
2967;DHT22;1493;51.496;7.210;2022-12-29T01:13:30;10.40;99.90
2967;DHT22;1493;51.496;7.210;2022-12-29T01:15:57;10.40;99.90
2967;DHT22;1493;51.496;7.210;2022-12-29T01:18:27;10.40;99.90
2967;DHT22;1493;51.496;7.210;2022-12-29T01:20:58;10.40;99.90
2967;DHT22;1493;51.496;7.210;2022-12-29T01:23:28;10.40;99.90
2967;DHT22;1493;51.496;7.210;2022-12-29T01:26:03;10.40;99.90
2967;DHT22;1493;51.496;7.210;2022-12-29T01:28:34;10.40;99.90
2967;DHT22;1493;51.496;7.210;2022-12-29T01:31:01;10.50;99.90
2967;DHT22;1493;51.496;7.210;2022-12-29T01:33:28;10.50;99.90
2967;DHT22;1493;51.496;7.210;2022-12-29T01:35:55;10.50;99.90
2967;DHT22;1493;51.496;7.210;2022-12-29T01:38:23;10.50;99.90
2967;DHT22;1493;51.496;7.210;2022-12-29T01:40:52;10.60;99.90
2967;DHT22;1493;51.496;7.210;2022-12-29T01:43:20;10.60;99.90
2967;DHT22;1493;51.496;7.210;2022-12-29T01:45:50;10.60;99.90
2967;DHT22;1493;51.496;7.210;2022-12-29T01:48:17;10.70;99.90
2967;DHT22;1493;51.496;7.210;2022-12-29T01:50:49;10.70;99.90
2967;DHT22;1493;51.496;7.210;2022-12-29T01:53:19;10.70;99.90
2967;DHT22;1493;51.496;7.210;2022-12-29T01:55:49;10.70;99.90
2967;DHT22;1493;51.496;7.210;2022-12-29T01:58:22;10.70;99.90
2967;DHT22;1493;51.496;7.210;2022-12-29T02:00:49;10.80;99.90
2967;DHT22;1493;51.496;7.210;2022-12-29T02:03:16;10.80;99.90
2967;DHT22;1493;51.496;7.210;2022-12-29T02:05:48;10.80;99.90
2967;DHT22;1493;51.496;7.210;2022-12-29T02:08:16;10.90;99.90
2967;DHT22;1493;51.496;7.210;2022-12-29T02:10:44;10.90;99.90
2967;DHT22;1493;51.496;7.210;2022-12-29T02:13:11;11.00;99.90
2967;DHT22;1493;51.496;7.210;2022-12-29T02:15:52;11.00;99.90
2967;DHT22;1493;51.496;7.210;2022-12-29T02:18:30;11.00;99.90
2967;DHT22;1493;51.496;7.210;2022-12-29T02:24:24;11.00;99.90
2967;DHT22;1493;51.496;7.210;2022-12-29T02:27:06;10.90;99.90
2967;DHT22;1493;51.496;7.210;2022-12-29T02:29:51;10.90;99.90
2967;DHT22;1493;51.496;7.210;2022-12-29T02:32:28;11.00;99.90
2967;DHT22;1493;51.496;7.210;2022-12-29T02:35:03;11.00;99.90
2967;DHT22;1493;51.496;7.210;2022-12-29T02:37:39;11.10;99.90
2967;DHT22;1493;51.496;7.210;2022-12-29T02:40:15;11.10;99.90
2967;DHT22;1493;51.496;7.210;2022-12-29T02:42:49;11.20;99.90
2967;DHT22;1493;51.496;7.210;2022-12-29T02:45:22;11.20;99.90
2967;DHT22;1493;51.496;7.210;2022-12-29T02:47:59;11.30;99.90
2967;DHT22;1493;51.496;7.210;2022-12-29T02:50:34;11.20;99.90
2967;DHT22;1493;51.496;7.210;2022-12-29T02:53:05;11.30;99.90
2967;DHT22;1493;51.496;7.210;2022-12-29T02:55:33;11.40;99.90
2967;DHT22;1493;51.496;7.210;2022-12-29T02:58:16;11.40;99.90
2967;DHT22;1493;51.496;7.210;2022-12-29T03:00:54;11.30;99.90
2967;DHT22;1493;51.496;7.210;2022-12-29T03:03:32;11.30;99.90
2967;DHT22;1493;51.496;7.210;2022-12-29T03:06:16;11.30;99.90
2967;DHT22;1493;51.496;7.210;2022-12-29T03:08:53;11.40;99.90
2967;DHT22;1493;51.496;7.210;2022-12-29T03:11:23;11.50;99.90
2967;DHT22;1493;51.496;7.210;2022-12-29T03:14:17;11.50;99.90
2967;DHT22;1493;51.496;7.210;2022-12-29T03:17:09;11.60;99.90
2967;DHT22;1493;51.496;7.210;2022-12-29T03:19:41;11.50;99.90
2967;DHT22;1493;51.496;7.210;2022-12-29T03:22:14;11.40;99.90
2967;DHT22;1493;51.496;7.210;2022-12-29T03:24:59;11.30;99.90
2967;DHT22;1493;51.496;7.210;2022-12-29T03:27:29;11.30;99.90
2967;DHT22;1493;51.496;7.210;2022-12-29T03:30:00;11.30;99.90
2967;DHT22;1493;51.496;7.210;2022-12-29T03:32:31;11.30;99.90
2967;DHT22;1493;51.496;7.210;2022-12-29T03:35:00;11.40;99.90
2967;DHT22;1493;51.496;7.210;2022-12-29T03:37:34;11.40;99.90
2967;DHT22;1493;51.496;7.210;2022-12-29T03:40:03;11.40;99.90
2967;DHT22;1493;51.496;7.210;2022-12-29T03:42:32;11.50;99.90
2967;DHT22;1493;51.496;7.210;2022-12-29T03:45:00;11.60;99.90
2967;DHT22;1493;51.496;7.210;2022-12-29T03:47:27;11.60;99.90
2967;DHT22;1493;51.496;7.210;2022-12-29T03:49:54;11.60;99.90
2967;DHT22;1493;51.496;7.210;2022-12-29T03:52:22;11.50;99.90
2967;DHT22;1493;51.496;7.210;2022-12-29T03:54:48;11.40;99.90
2967;DHT22;1493;51.496;7.210;2022-12-29T03:57:15;11.20;99.90
2967;DHT22;1493;51.496;7.210;2022-12-29T03:59:42;11.10;99.90
2967;DHT22;1493;51.496;7.210;2022-12-29T04:02:09;10.90;99.90
2967;DHT22;1493;51.496;7.210;2022-12-29T04:04:36;10.90;99.90
2967;DHT22;1493;51.496;7.210;2022-12-29T04:07:02;10.80;99.90
2967;DHT22;1493;51.496;7.210;2022-12-29T04:09:30;10.80;99.90
2967;DHT22;1493;51.496;7.210;2022-12-29T04:11:57;10.80;99.90
2967;DHT22;1493;51.496;7.210;2022-12-29T04:14:24;10.70;99.90
2967;DHT22;1493;51.496;7.210;2022-12-29T04:16:51;10.70;99.90
2967;DHT22;1493;51.496;7.210;2022-12-29T04:19:18;10.70;99.90
2967;DHT22;1493;51.496;7.210;2022-12-29T04:21:44;10.70;99.90
2967;DHT22;1493;51.496;7.210;2022-12-29T04:24:11;10.70;99.90
2967;DHT22;1493;51.496;7.210;2022-12-29T04:26:40;10.70;99.90
2967;DHT22;1493;51.496;7.210;2022-12-29T04:29:06;10.60;99.90
2967;DHT22;1493;51.496;7.210;2022-12-29T04:31:33;10.60;99.90
2967;DHT22;1493;51.496;7.210;2022-12-29T04:34:00;10.60;99.90
2967;DHT22;1493;51.496;7.210;2022-12-29T04:36:27;10.60;99.90
2967;DHT22;1493;51.496;7.210;2022-12-29T04:38:54;10.70;99.90
2967;DHT22;1493;51.496;7.210;2022-12-29T04:41:20;10.70;99.90
2967;DHT22;1493;51.496;7.210;2022-12-29T04:43:49;10.70;99.90
2967;DHT22;1493;51.496;7.210;2022-12-29T04:46:16;10.90;99.90
2967;DHT22;1493;51.496;7.210;2022-12-29T04:48:42;10.90;99.90
2967;DHT22;1493;51.496;7.210;2022-12-29T04:51:09;11.10;99.90
2967;DHT22;1493;51.496;7.210;2022-12-29T04:53:36;11.20;99.90
2967;DHT22;1493;51.496;7.210;2022-12-29T04:56:03;11.20;99.90
2967;DHT22;1493;51.496;7.210;2022-12-29T04:58:30;11.30;99.90
2967;DHT22;1493;51.496;7.210;2022-12-29T05:00:58;11.40;99.90
2967;DHT22;1493;51.496;7.210;2022-12-29T05:03:25;11.40;99.90
2967;DHT22;1493;51.496;7.210;2022-12-29T05:05:53;11.50;99.90
2967;DHT22;1493;51.496;7.210;2022-12-29T05:08:20;11.60;99.90
2967;DHT22;1493;51.496;7.210;2022-12-29T05:10:47;11.70;99.90
2967;DHT22;1493;51.496;7.210;2022-12-29T05:13:16;11.70;99.90
2967;DHT22;1493;51.496;7.210;2022-12-29T05:15:47;11.80;99.90
2967;DHT22;1493;51.496;7.210;2022-12-29T05:18:17;11.80;99.90
2967;DHT22;1493;51.496;7.210;2022-12-29T05:20:44;11.80;99.90
2967;DHT22;1493;51.496;7.210;2022-12-29T05:23:11;11.90;99.90
2967;DHT22;1493;51.496;7.210;2022-12-29T05:25:37;11.80;99.90
2967;DHT22;1493;51.496;7.210;2022-12-29T05:28:04;11.80;99.90
2967;DHT22;1493;51.496;7.210;2022-12-29T05:30:31;11.90;99.90
2967;DHT22;1493;51.496;7.210;2022-12-29T05:32:58;11.80;99.90
2967;DHT22;1493;51.496;7.210;2022-12-29T05:35:26;11.80;99.90
2967;DHT22;1493;51.496;7.210;2022-12-29T05:37:53;11.90;99.90
2967;DHT22;1493;51.496;7.210;2022-12-29T05:40:20;11.90;99.90
2967;DHT22;1493;51.496;7.210;2022-12-29T05:42:46;11.90;99.90
2967;DHT22;1493;51.496;7.210;2022-12-29T05:45:13;12.00;99.90
2967;DHT22;1493;51.496;7.210;2022-12-29T05:47:40;11.90;99.90
2967;DHT22;1493;51.496;7.210;2022-12-29T05:50:07;12.00;99.90
2967;DHT22;1493;51.496;7.210;2022-12-29T05:52:38;11.90;99.90
2967;DHT22;1493;51.496;7.210;2022-12-29T05:55:06;11.90;99.90
2967;DHT22;1493;51.496;7.210;2022-12-29T05:57:33;11.80;99.90
2967;DHT22;1493;51.496;7.210;2022-12-29T05:59:59;11.60;99.90
2967;DHT22;1493;51.496;7.210;2022-12-29T06:02:26;11.40;99.90
2967;DHT22;1493;51.496;7.210;2022-12-29T06:04:53;11.20;99.90
2967;DHT22;1493;51.496;7.210;2022-12-29T06:07:20;11.10;99.90
2967;DHT22;1493;51.496;7.210;2022-12-29T06:09:48;11.00;99.90
2967;DHT22;1493;51.496;7.210;2022-12-29T06:12:15;10.90;99.90
2967;DHT22;1493;51.496;7.210;2022-12-29T06:14:45;10.80;99.90
2967;DHT22;1493;51.496;7.210;2022-12-29T06:17:11;10.70;99.90
2967;DHT22;1493;51.496;7.210;2022-12-29T06:19:38;10.70;99.90
2967;DHT22;1493;51.496;7.210;2022-12-29T06:22:05;10.60;99.90
2967;DHT22;1493;51.496;7.210;2022-12-29T06:24:33;10.50;99.90
2967;DHT22;1493;51.496;7.210;2022-12-29T06:27:01;10.60;99.90
2967;DHT22;1493;51.496;7.210;2022-12-29T06:29:28;10.60;99.90
2967;DHT22;1493;51.496;7.210;2022-12-29T06:31:54;10.70;99.90
2967;DHT22;1493;51.496;7.210;2022-12-29T06:34:23;10.60;99.90
2967;DHT22;1493;51.496;7.210;2022-12-29T06:36:51;10.60;99.90
2967;DHT22;1493;51.496;7.210;2022-12-29T06:39:18;10.70;99.90
2967;DHT22;1493;51.496;7.210;2022-12-29T06:41:44;10.60;99.90
2967;DHT22;1493;51.496;7.210;2022-12-29T06:44:12;10.50;99.90
2967;DHT22;1493;51.496;7.210;2022-12-29T06:46:39;10.50;99.90
2967;DHT22;1493;51.496;7.210;2022-12-29T06:49:06;10.50;99.90
2967;DHT22;1493;51.496;7.210;2022-12-29T06:51:33;10.70;99.90
2967;DHT22;1493;51.496;7.210;2022-12-29T06:54:00;10.80;99.90
2967;DHT22;1493;51.496;7.210;2022-12-29T06:56:26;11.00;99.90
2967;DHT22;1493;51.496;7.210;2022-12-29T06:58:53;11.10;99.90
2967;DHT22;1493;51.496;7.210;2022-12-29T07:01:21;11.20;99.90
2967;DHT22;1493;51.496;7.210;2022-12-29T07:03:48;11.20;99.90
2967;DHT22;1493;51.496;7.210;2022-12-29T07:06:15;11.20;99.90
2967;DHT22;1493;51.496;7.210;2022-12-29T07:08:42;11.30;99.90
2967;DHT22;1493;51.496;7.210;2022-12-29T07:11:08;11.40;99.90
2967;DHT22;1493;51.496;7.210;2022-12-29T07:13:38;11.40;99.90
2967;DHT22;1493;51.496;7.210;2022-12-29T07:16:06;11.40;99.90
2967;DHT22;1493;51.496;7.210;2022-12-29T07:18:35;11.40;99.90
2967;DHT22;1493;51.496;7.210;2022-12-29T07:21:02;11.40;99.90
2967;DHT22;1493;51.496;7.210;2022-12-29T07:23:29;11.30;99.90
2967;DHT22;1493;51.496;7.210;2022-12-29T07:26:00;11.40;99.90
2967;DHT22;1493;51.496;7.210;2022-12-29T07:28:27;11.40;99.90
2967;DHT22;1493;51.496;7.210;2022-12-29T07:30:54;11.40;99.90
2967;DHT22;1493;51.496;7.210;2022-12-29T07:33:21;11.40;99.90
2967;DHT22;1493;51.496;7.210;2022-12-29T07:35:49;11.40;99.90
2967;DHT22;1493;51.496;7.210;2022-12-29T07:38:16;11.40;99.90
2967;DHT22;1493;51.496;7.210;2022-12-29T07:40:43;11.40;99.90
2967;DHT22;1493;51.496;7.210;2022-12-29T07:43:12;11.40;99.90
2967;DHT22;1493;51.496;7.210;2022-12-29T07:45:40;11.40;99.90
2967;DHT22;1493;51.496;7.210;2022-12-29T07:48:07;11.50;99.90
2967;DHT22;1493;51.496;7.210;2022-12-29T07:50:34;11.50;99.90
2967;DHT22;1493;51.496;7.210;2022-12-29T07:53:02;11.40;99.90
2967;DHT22;1493;51.496;7.210;2022-12-29T07:55:29;11.40;99.90
2967;DHT22;1493;51.496;7.210;2022-12-29T07:57:58;11.40;99.90
2967;DHT22;1493;51.496;7.210;2022-12-29T08:00:25;11.50;99.90
2967;DHT22;1493;51.496;7.210;2022-12-29T08:02:51;11.50;99.90
2967;DHT22;1493;51.496;7.210;2022-12-29T08:05:18;11.50;99.90
2967;DHT22;1493;51.496;7.210;2022-12-29T08:07:47;11.50;99.90
2967;DHT22;1493;51.496;7.210;2022-12-29T08:10:16;11.50;99.90
2967;DHT22;1493;51.496;7.210;2022-12-29T08:12:43;11.50;99.90
2967;DHT22;1493;51.496;7.210;2022-12-29T08:15:11;11.50;99.90
2967;DHT22;1493;51.496;7.210;2022-12-29T08:17:38;11.40;99.90
2967;DHT22;1493;51.496;7.210;2022-12-29T08:20:06;11.40;99.90
2967;DHT22;1493;51.496;7.210;2022-12-29T08:22:37;11.40;99.90
2967;DHT22;1493;51.496;7.210;2022-12-29T08:25:04;11.50;99.90
2967;DHT22;1493;51.496;7.210;2022-12-29T08:27:32;11.50;99.90
2967;DHT22;1493;51.496;7.210;2022-12-29T08:29:59;11.50;99.90
2967;DHT22;1493;51.496;7.210;2022-12-29T08:32:26;11.50;99.90
2967;DHT22;1493;51.496;7.210;2022-12-29T08:34:54;11.50;99.90
2967;DHT22;1493;51.496;7.210;2022-12-29T08:37:21;11.50;99.90
2967;DHT22;1493;51.496;7.210;2022-12-29T08:39:48;11.50;99.90
2967;DHT22;1493;51.496;7.210;2022-12-29T08:42:15;11.60;99.90
2967;DHT22;1493;51.496;7.210;2022-12-29T08:44:43;11.60;99.90
2967;DHT22;1493;51.496;7.210;2022-12-29T08:47:10;11.60;99.90
2967;DHT22;1493;51.496;7.210;2022-12-29T08:49:37;11.70;99.90
2967;DHT22;1493;51.496;7.210;2022-12-29T08:52:07;11.70;99.90
2967;DHT22;1493;51.496;7.210;2022-12-29T08:54:34;11.60;99.90
2967;DHT22;1493;51.496;7.210;2022-12-29T08:57:01;11.60;99.90
2967;DHT22;1493;51.496;7.210;2022-12-29T08:59:28;11.60;99.90
2967;DHT22;1493;51.496;7.210;2022-12-29T09:02:00;11.60;99.90
2967;DHT22;1493;51.496;7.210;2022-12-29T09:04:31;11.60;99.90
2967;DHT22;1493;51.496;7.210;2022-12-29T09:06:58;11.60;99.90
2967;DHT22;1493;51.496;7.210;2022-12-29T09:09:25;11.50;99.90
2967;DHT22;1493;51.496;7.210;2022-12-29T09:11:52;11.40;99.90
2967;DHT22;1493;51.496;7.210;2022-12-29T09:14:19;11.30;99.90
2967;DHT22;1493;51.496;7.210;2022-12-29T09:16:47;11.20;99.90
2967;DHT22;1493;51.496;7.210;2022-12-29T09:19:32;11.20;99.90
2967;DHT22;1493;51.496;7.210;2022-12-29T09:21:59;11.20;99.90
2967;DHT22;1493;51.496;7.210;2022-12-29T09:24:26;11.20;99.90
2967;DHT22;1493;51.496;7.210;2022-12-29T09:26:53;11.30;99.90
2967;DHT22;1493;51.496;7.210;2022-12-29T09:29:19;11.30;99.90
2967;DHT22;1493;51.496;7.210;2022-12-29T09:31:46;11.30;99.90
2967;DHT22;1493;51.496;7.210;2022-12-29T09:34:13;11.40;99.90
2967;DHT22;1493;51.496;7.210;2022-12-29T09:36:42;11.50;99.90
2967;DHT22;1493;51.496;7.210;2022-12-29T09:39:09;11.60;99.90
2967;DHT22;1493;51.496;7.210;2022-12-29T09:41:39;11.70;99.90
2967;DHT22;1493;51.496;7.210;2022-12-29T09:44:15;11.80;99.90
2967;DHT22;1493;51.496;7.210;2022-12-29T09:46:48;11.80;99.90
2967;DHT22;1493;51.496;7.210;2022-12-29T09:49:22;11.90;99.90
2967;DHT22;1493;51.496;7.210;2022-12-29T09:51:54;11.90;99.90
2967;DHT22;1493;51.496;7.210;2022-12-29T09:54:29;12.00;99.90
2967;DHT22;1493;51.496;7.210;2022-12-29T09:56:59;11.90;99.90
2967;DHT22;1493;51.496;7.210;2022-12-29T09:59:35;12.00;99.90
2967;DHT22;1493;51.496;7.210;2022-12-29T10:02:12;11.90;99.90
2967;DHT22;1493;51.496;7.210;2022-12-29T10:04:42;12.10;99.90
2967;DHT22;1493;51.496;7.210;2022-12-29T10:07:15;12.20;99.90
2967;DHT22;1493;51.496;7.210;2022-12-29T10:09:47;12.10;99.90
2967;DHT22;1493;51.496;7.210;2022-12-29T10:12:27;11.90;99.90
2967;DHT22;1493;51.496;7.210;2022-12-29T10:15:02;11.80;99.90
2967;DHT22;1493;51.496;7.210;2022-12-29T10:17:38;11.80;99.90
2967;DHT22;1493;51.496;7.210;2022-12-29T10:20:27;11.70;99.90
2967;DHT22;1493;51.496;7.210;2022-12-29T10:23:19;11.90;99.90
2967;DHT22;1493;51.496;7.210;2022-12-29T10:25:47;11.90;99.90
2967;DHT22;1493;51.496;7.210;2022-12-29T10:28:19;11.90;99.90
2967;DHT22;1493;51.496;7.210;2022-12-29T10:30:48;11.90;99.90
2967;DHT22;1493;51.496;7.210;2022-12-29T10:33:18;12.00;99.90
2967;DHT22;1493;51.496;7.210;2022-12-29T10:35:47;12.10;99.90
2967;DHT22;1493;51.496;7.210;2022-12-29T10:38:22;12.30;99.90
2967;DHT22;1493;51.496;7.210;2022-12-29T10:40:54;12.40;99.90
2967;DHT22;1493;51.496;7.210;2022-12-29T10:43:26;12.50;99.90
2967;DHT22;1493;51.496;7.210;2022-12-29T10:45:54;12.60;99.90
2967;DHT22;1493;51.496;7.210;2022-12-29T10:48:24;12.50;99.90
2967;DHT22;1493;51.496;7.210;2022-12-29T10:50:57;12.30;99.90
2967;DHT22;1493;51.496;7.210;2022-12-29T10:53:30;12.30;99.90
2967;DHT22;1493;51.496;7.210;2022-12-29T10:56:00;12.20;99.90
2967;DHT22;1493;51.496;7.210;2022-12-29T10:58:28;12.20;99.90
2967;DHT22;1493;51.496;7.210;2022-12-29T11:00:56;12.20;99.90
2967;DHT22;1493;51.496;7.210;2022-12-29T11:03:37;12.10;99.90
2967;DHT22;1493;51.496;7.210;2022-12-29T11:06:10;12.00;99.90
2967;DHT22;1493;51.496;7.210;2022-12-29T11:08:44;12.00;99.90
2967;DHT22;1493;51.496;7.210;2022-12-29T11:11:23;11.90;99.90
2967;DHT22;1493;51.496;7.210;2022-12-29T11:13:56;12.00;99.90
2967;DHT22;1493;51.496;7.210;2022-12-29T11:16:31;12.00;99.90
2967;DHT22;1493;51.496;7.210;2022-12-29T11:18:59;12.10;99.90
2967;DHT22;1493;51.496;7.210;2022-12-29T11:21:31;12.00;99.90
2967;DHT22;1493;51.496;7.210;2022-12-29T11:24:02;11.90;99.90
2967;DHT22;1493;51.496;7.210;2022-12-29T11:26:29;11.90;99.90
2967;DHT22;1493;51.496;7.210;2022-12-29T11:29:20;11.80;99.90
2967;DHT22;1493;51.496;7.210;2022-12-29T11:31:49;11.90;99.90
2967;DHT22;1493;51.496;7.210;2022-12-29T11:34:18;11.80;99.90
2967;DHT22;1493;51.496;7.210;2022-12-29T11:36:46;11.80;99.90
2967;DHT22;1493;51.496;7.210;2022-12-29T11:39:29;11.80;99.90
2967;DHT22;1493;51.496;7.210;2022-12-29T11:41:56;11.80;99.90
2967;DHT22;1493;51.496;7.210;2022-12-29T11:44:25;11.80;99.90
2967;DHT22;1493;51.496;7.210;2022-12-29T11:46:53;11.90;99.90
2967;DHT22;1493;51.496;7.210;2022-12-29T11:49:23;11.90;99.90
2967;DHT22;1493;51.496;7.210;2022-12-29T11:51:52;11.90;99.90
2967;DHT22;1493;51.496;7.210;2022-12-29T11:54:30;12.00;99.90
2967;DHT22;1493;51.496;7.210;2022-12-29T11:57:08;12.10;99.90
2967;DHT22;1493;51.496;7.210;2022-12-29T11:59:39;12.00;99.90
2967;DHT22;1493;51.496;7.210;2022-12-29T12:02:26;12.20;99.90
2967;DHT22;1493;51.496;7.210;2022-12-29T12:05:01;12.20;99.90
2967;DHT22;1493;51.496;7.210;2022-12-29T12:07:38;12.20;99.90
2967;DHT22;1493;51.496;7.210;2022-12-29T12:10:19;12.20;99.90
2967;DHT22;1493;51.496;7.210;2022-12-29T12:12:53;12.20;99.90
2967;DHT22;1493;51.496;7.210;2022-12-29T12:15:27;12.30;99.90
2967;DHT22;1493;51.496;7.210;2022-12-29T12:18:00;12.20;99.90
2967;DHT22;1493;51.496;7.210;2022-12-29T12:20:41;12.20;99.90
2967;DHT22;1493;51.496;7.210;2022-12-29T12:23:32;12.30;99.90
2967;DHT22;1493;51.496;7.210;2022-12-29T12:26:11;12.50;99.90
2967;DHT22;1493;51.496;7.210;2022-12-29T12:28:45;12.60;99.90
2967;DHT22;1493;51.496;7.210;2022-12-29T12:31:19;12.70;99.90
2967;DHT22;1493;51.496;7.210;2022-12-29T12:33:53;12.60;99.90
2967;DHT22;1493;51.496;7.210;2022-12-29T12:36:52;12.40;99.90
2967;DHT22;1493;51.496;7.210;2022-12-29T12:39:26;12.20;99.90
2967;DHT22;1493;51.496;7.210;2022-12-29T12:42:04;12.00;99.90
2967;DHT22;1493;51.496;7.210;2022-12-29T12:44:41;12.00;99.90
2967;DHT22;1493;51.496;7.210;2022-12-29T12:47:38;12.00;99.90
2967;DHT22;1493;51.496;7.210;2022-12-29T12:50:32;11.90;99.90
2967;DHT22;1493;51.496;7.210;2022-12-29T12:53:33;11.80;99.90
2967;DHT22;1493;51.496;7.210;2022-12-29T12:56:17;11.80;99.90
2967;DHT22;1493;51.496;7.210;2022-12-29T12:58:53;11.80;99.90
2967;DHT22;1493;51.496;7.210;2022-12-29T13:01:36;11.90;99.90
2967;DHT22;1493;51.496;7.210;2022-12-29T13:04:26;11.80;99.90
2967;DHT22;1493;51.496;7.210;2022-12-29T13:07:01;11.80;99.90
2967;DHT22;1493;51.496;7.210;2022-12-29T13:09:45;11.70;99.90
2967;DHT22;1493;51.496;7.210;2022-12-29T13:12:23;11.70;99.90
2967;DHT22;1493;51.496;7.210;2022-12-29T13:15:02;11.60;99.90
2967;DHT22;1493;51.496;7.210;2022-12-29T13:17:36;11.60;99.90
2967;DHT22;1493;51.496;7.210;2022-12-29T13:20:15;11.70;99.90
2967;DHT22;1493;51.496;7.210;2022-12-29T13:22:50;11.80;99.90
2967;DHT22;1493;51.496;7.210;2022-12-29T13:25:27;11.70;99.90
2967;DHT22;1493;51.496;7.210;2022-12-29T13:28:00;11.70;99.90
2967;DHT22;1493;51.496;7.210;2022-12-29T13:30:33;11.70;99.90
2967;DHT22;1493;51.496;7.210;2022-12-29T13:33:10;11.80;99.90
2967;DHT22;1493;51.496;7.210;2022-12-29T13:35:52;11.80;99.90
2967;DHT22;1493;51.496;7.210;2022-12-29T13:38:23;11.80;99.90
2967;DHT22;1493;51.496;7.210;2022-12-29T13:40:56;11.80;99.90
2967;DHT22;1493;51.496;7.210;2022-12-29T13:43:23;11.80;99.90
2967;DHT22;1493;51.496;7.210;2022-12-29T13:45:59;11.60;99.90
2967;DHT22;1493;51.496;7.210;2022-12-29T13:48:35;11.70;99.90
2967;DHT22;1493;51.496;7.210;2022-12-29T13:51:04;11.70;99.90
2967;DHT22;1493;51.496;7.210;2022-12-29T13:53:37;11.70;99.90
2967;DHT22;1493;51.496;7.210;2022-12-29T13:56:12;11.70;99.90
2967;DHT22;1493;51.496;7.210;2022-12-29T13:58:50;11.70;99.90
2967;DHT22;1493;51.496;7.210;2022-12-29T14:01:23;11.60;99.90
2967;DHT22;1493;51.496;7.210;2022-12-29T14:03:56;11.40;99.90
2967;DHT22;1493;51.496;7.210;2022-12-29T14:06:25;11.40;99.90
2967;DHT22;1493;51.496;7.210;2022-12-29T14:08:54;11.40;99.90
2967;DHT22;1493;51.496;7.210;2022-12-29T14:11:24;11.40;99.90
2967;DHT22;1493;51.496;7.210;2022-12-29T14:13:56;11.40;99.90
2967;DHT22;1493;51.496;7.210;2022-12-29T14:16:42;11.30;99.90
2967;DHT22;1493;51.496;7.210;2022-12-29T14:19:13;11.40;99.90
2967;DHT22;1493;51.496;7.210;2022-12-29T14:21:51;11.30;99.90
2967;DHT22;1493;51.496;7.210;2022-12-29T14:24:43;11.30;99.90
2967;DHT22;1493;51.496;7.210;2022-12-29T14:30:59;11.30;99.90
2967;DHT22;1493;51.496;7.210;2022-12-29T14:33:29;11.40;99.90
2967;DHT22;1493;51.496;7.210;2022-12-29T14:36:18;11.30;99.90
2967;DHT22;1493;51.496;7.210;2022-12-29T14:38:46;11.30;99.90
2967;DHT22;1493;51.496;7.210;2022-12-29T14:41:28;11.40;99.90
2967;DHT22;1493;51.496;7.210;2022-12-29T14:44:01;11.40;99.90
2967;DHT22;1493;51.496;7.210;2022-12-29T14:46:54;11.40;99.90
2967;DHT22;1493;51.496;7.210;2022-12-29T14:49:24;11.40;99.90
2967;DHT22;1493;51.496;7.210;2022-12-29T14:51:53;11.30;99.90
2967;DHT22;1493;51.496;7.210;2022-12-29T14:54:49;11.30;99.90
2967;DHT22;1493;51.496;7.210;2022-12-29T14:57:27;11.20;99.90
2967;DHT22;1493;51.496;7.210;2022-12-29T14:59:59;11.20;99.90
2967;DHT22;1493;51.496;7.210;2022-12-29T15:02:32;11.30;99.90
2967;DHT22;1493;51.496;7.210;2022-12-29T15:05:03;11.30;99.90
2967;DHT22;1493;51.496;7.210;2022-12-29T15:07:32;11.30;99.90
2967;DHT22;1493;51.496;7.210;2022-12-29T15:10:05;11.30;99.90
2967;DHT22;1493;51.496;7.210;2022-12-29T15:12:38;11.20;99.90
2967;DHT22;1493;51.496;7.210;2022-12-29T15:15:20;11.10;99.90
2967;DHT22;1493;51.496;7.210;2022-12-29T15:17:48;11.20;99.90
2967;DHT22;1493;51.496;7.210;2022-12-29T15:20:22;11.20;99.90
2967;DHT22;1493;51.496;7.210;2022-12-29T15:22:53;11.20;99.90
2967;DHT22;1493;51.496;7.210;2022-12-29T15:25:20;11.20;99.90
2967;DHT22;1493;51.496;7.210;2022-12-29T15:27:50;11.20;99.90
2967;DHT22;1493;51.496;7.210;2022-12-29T15:30:18;11.20;99.90
2967;DHT22;1493;51.496;7.210;2022-12-29T15:32:49;11.20;99.90
2967;DHT22;1493;51.496;7.210;2022-12-29T15:35:30;11.10;99.90
2967;DHT22;1493;51.496;7.210;2022-12-29T15:37:58;11.10;99.90
2967;DHT22;1493;51.496;7.210;2022-12-29T15:40:28;11.00;99.90
2967;DHT22;1493;51.496;7.210;2022-12-29T15:43:20;11.10;99.90
2967;DHT22;1493;51.496;7.210;2022-12-29T15:45:49;11.10;99.90
2967;DHT22;1493;51.496;7.210;2022-12-29T15:48:18;11.10;99.90
2967;DHT22;1493;51.496;7.210;2022-12-29T15:50:48;11.10;99.90
2967;DHT22;1493;51.496;7.210;2022-12-29T15:53:19;11.00;99.90
2967;DHT22;1493;51.496;7.210;2022-12-29T15:55:50;11.10;99.90
2967;DHT22;1493;51.496;7.210;2022-12-29T15:58:20;11.00;99.90
2967;DHT22;1493;51.496;7.210;2022-12-29T16:00:48;11.00;99.90
2967;DHT22;1493;51.496;7.210;2022-12-29T16:03:16;10.90;99.90
2967;DHT22;1493;51.496;7.210;2022-12-29T16:05:51;11.00;99.90
2967;DHT22;1493;51.496;7.210;2022-12-29T16:08:31;11.00;99.90
2967;DHT22;1493;51.496;7.210;2022-12-29T16:11:00;11.00;99.90
2967;DHT22;1493;51.496;7.210;2022-12-29T16:13:30;10.90;99.90
2967;DHT22;1493;51.496;7.210;2022-12-29T16:16:02;10.90;99.90
2967;DHT22;1493;51.496;7.210;2022-12-29T16:18:35;11.00;99.90
2967;DHT22;1493;51.496;7.210;2022-12-29T16:21:05;11.00;99.90
2967;DHT22;1493;51.496;7.210;2022-12-29T16:23:32;10.80;99.90
2967;DHT22;1493;51.496;7.210;2022-12-29T16:26:03;10.80;99.90
2967;DHT22;1493;51.496;7.210;2022-12-29T16:28:36;10.70;99.90
2967;DHT22;1493;51.496;7.210;2022-12-29T16:31:17;10.60;99.90
2967;DHT22;1493;51.496;7.210;2022-12-29T16:33:47;10.40;99.90
2967;DHT22;1493;51.496;7.210;2022-12-29T16:36:28;10.30;99.90
2967;DHT22;1493;51.496;7.210;2022-12-29T16:39:23;10.40;99.90